Time;durP1;ratioP1;P1;durP2;ratioP2;P2;SDS_P1;SDS_P2;PMS_P1;PMS_P2;Temp;Humidity;BMP_temperature;BMP_pressure;BME280_temperature;BME280_humidity;BME280_pressure;Samples;Min_cycle;Max_cycle;Signal;HPM_P1;HPM_P2
2020/12/10 00:01:46;;;;;;;57.95;32.00;;;;;;;3.67;74.26;100093.13;5026145;28;20080;-70
2020/12/10 00:04:12;;;;;;;57.00;31.73;;;;;;;3.66;74.41;100097.44;5026079;28;20037;-71
2020/12/10 00:06:37;;;;;;;61.90;35.00;;;;;;;3.59;73.98;100086.88;5024150;28;20088;-71
2020/12/10 00:09:03;;;;;;;59.75;31.25;;;;;;;3.50;74.56;100085.91;5005195;28;20050;-71
2020/12/10 00:11:28;;;;;;;55.63;28.75;;;;;;;3.54;74.28;100089.47;5023585;28;20049;-71
2020/12/10 00:13:53;;;;;;;61.63;32.00;;;;;;;3.55;74.41;100087.72;5025960;28;20072;-70
2020/12/10 00:16:19;;;;;;;63.65;32.67;;;;;;;3.54;74.32;100088.53;5026019;28;20037;-70
2020/12/10 00:18:44;;;;;;;66.72;33.83;;;;;;;3.50;74.15;100078.06;5022856;28;20044;-70
2020/12/10 00:21:09;;;;;;;58.22;33.00;;;;;;;3.53;74.56;100078.97;5022556;28;20037;-70
2020/12/10 00:23:35;;;;;;;59.92;32.22;;;;;;;3.53;74.55;100077.25;5006425;28;20798;-70
2020/12/10 00:26:00;;;;;;;60.42;32.80;;;;;;;3.46;74.32;100068.47;5025912;28;20411;-70
2020/12/10 00:28:26;;;;;;;60.80;31.70;;;;;;;3.51;74.54;100074.63;5025143;28;20033;-70
2020/12/10 00:30:51;;;;;;;60.90;33.45;;;;;;;3.46;74.87;100068.47;5017233;28;20117;-70
2020/12/10 00:33:17;;;;;;;60.05;31.92;;;;;;;3.49;74.56;100063.28;5022123;28;20124;-70
2020/12/10 00:35:42;;;;;;;59.97;32.45;;;;;;;3.51;74.20;100069.41;5025135;28;20041;-71
2020/12/10 00:38:07;;;;;;;65.10;34.25;;;;;;;3.51;74.45;100063.28;5025545;28;20048;-70
2020/12/10 00:40:33;;;;;;;59.65;33.88;;;;;;;3.45;74.77;100060.59;5024200;28;20037;-70
2020/12/10 00:42:58;;;;;;;60.50;31.67;;;;;;;3.41;75.15;100061.44;5021899;28;20095;-71
2020/12/10 00:45:23;;;;;;;60.03;32.00;;;;;;;3.47;74.33;100061.50;5022337;28;20038;-71
2020/12/10 00:47:48;;;;;;;64.07;31.52;;;;;;;3.51;74.50;100053.75;5025355;28;20100;-70
2020/12/10 00:50:14;;;;;;;61.00;32.70;;;;;;;3.51;74.68;100045.94;5024282;28;20030;-70
2020/12/10 00:52:40;;;;;;;64.38;34.17;;;;;;;3.54;74.82;100049.41;5022784;28;20398;-70
2020/12/10 00:55:11;;;;;;;60.90;32.57;;;;;;;3.49;74.64;100052.84;5004542;28;20065;-70
2020/12/10 00:57:39;;;;;;;59.60;31.90;;;;;;;3.48;74.60;100039.75;5006605;28;20665;-71
2020/12/10 01:00:08;;;;;;;68.00;35.70;;;;;;;3.45;74.93;100037.13;5025247;28;20037;-73
2020/12/10 01:02:33;;;;;;;60.63;33.22;;;;;;;3.44;75.17;100038.00;5023498;28;20044;-73
2020/12/10 01:04:58;;;;;;;64.85;34.72;;;;;;;3.41;74.62;100036.22;5021680;28;20038;-73
2020/12/10 01:07:23;;;;;;;63.88;32.95;;;;;;;3.44;74.80;100033.63;5021851;28;20042;-73
2020/12/10 01:09:49;;;;;;;61.80;31.90;;;;;;;3.45;74.48;100030.16;5025018;28;20043;-73
2020/12/10 01:12:14;;;;;;;64.25;30.65;;;;;;;3.41;74.46;100033.59;5024833;28;20044;-73
2020/12/10 01:14:40;;;;;;;65.68;34.65;;;;;;;3.41;74.73;100027.50;5022667;28;20072;-73
2020/12/10 01:17:05;;;;;;;62.55;31.05;;;;;;;3.40;74.26;100029.22;5021601;28;20030;-73
2020/12/10 01:19:30;;;;;;;56.80;31.35;;;;;;;3.38;74.57;100030.06;5022589;28;20044;-73
2020/12/10 01:21:56;;;;;;;64.43;32.25;;;;;;;3.40;74.98;100029.22;5025055;28;20033;-73
2020/12/10 01:24:21;;;;;;;59.00;30.30;;;;;;;3.42;74.59;100035.34;5024630;28;20037;-73
2020/12/10 01:26:46;;;;;;;61.33;32.00;;;;;;;3.38;74.53;100033.56;5021387;28;20056;-73
2020/12/10 01:29:12;;;;;;;54.50;32.22;;;;;;;3.38;74.46;100033.56;5021261;28;20033;-72
2020/12/10 01:31:37;;;;;;;58.10;31.10;;;;;;;3.40;74.63;100020.53;5005606;28;20063;-73
2020/12/10 01:34:02;;;;;;;63.80;31.65;;;;;;;3.40;74.41;100017.91;5024429;28;20108;-73
2020/12/10 01:36:29;;;;;;;64.97;34.53;;;;;;;3.35;74.96;100019.56;5023817;28;20045;-74
2020/12/10 01:38:55;;;;;;;66.47;33.00;;;;;;;3.36;74.77;100013.53;5062269;23;20372;-73
2020/12/10 01:41:30;;;;;;;58.78;31.52;;;;;;;3.38;74.91;100009.19;5060642;28;20116;-73
2020/12/10 01:44:11;;;;;;;64.25;33.95;;;;;;;3.30;74.63;100003.84;5060315;28;20120;-74
2020/12/10 01:46:38;;;;;;;66.75;33.17;;;;;;;3.33;75.15;100010.84;5062720;28;20029;-73
2020/12/10 01:49:05;;;;;;;72.78;36.13;;;;;;;3.37;74.92;100010.91;5064112;28;20033;-73
2020/12/10 01:51:31;;;;;;;65.40;33.92;;;;;;;3.36;75.07;100008.31;5063011;28;20032;-73
2020/12/10 01:54:01;;;;;;;69.25;34.63;;;;;;;3.38;75.10;100009.19;5060467;28;20484;-72
2020/12/10 01:56:27;;;;;;;71.35;34.55;;;;;;;3.37;74.98;100010.91;5061180;28;20457;-73
2020/12/10 01:58:53;;;;;;;68.22;33.40;;;;;;;3.37;75.21;100010.06;5060814;28;20036;-73
2020/12/10 02:01:18;;;;;;;66.82;33.33;;;;;;;3.40;75.15;100003.13;5056538;28;20037;-73
2020/12/10 02:03:44;;;;;;;76.97;38.00;;;;;;;3.41;75.23;100007.50;5066815;28;20626;-73
2020/12/10 02:06:09;;;;;;;72.90;35.63;;;;;;;3.45;75.10;100004.06;5065718;28;20060;-73
2020/12/10 02:08:42;;;;;;;80.82;37.60;;;;;;;3.42;74.91;99996.22;5061914;28;20112;-73
2020/12/10 02:11:11;;;;;;;;;;;;;;;3.36;75.57;100000.47;5064311;28;20414;-73
2020/12/10 02:13:37;;;;;;;76.38;35.78;;;;;;;3.36;74.92;100003.97;5061533;28;19965;-73
2020/12/10 02:16:03;;;;;;;77.07;36.60;;;;;;;3.39;75.24;100001.38;5059747;28;20160;-73
2020/12/10 02:18:28;;;;;;;71.63;33.97;;;;;;;3.36;75.68;99995.25;5060858;28;20029;-73
2020/12/10 02:20:54;;;;;;;75.15;35.67;;;;;;;3.33;75.53;99997.81;5063512;28;20513;-73
2020/12/10 02:23:19;;;;;;;84.55;37.95;;;;;;;3.31;75.29;99991.72;5063410;28;20579;-73
2020/12/10 02:25:44;;;;;;;78.10;35.08;;;;;;;3.27;75.77;99982.94;5060321;28;20510;-73
2020/12/10 02:28:12;;;;;;;73.22;35.35;;;;;;;3.27;75.68;99985.56;5060007;28;20115;-73
2020/12/10 02:30:38;;;;;;;79.78;37.47;;;;;;;3.29;75.36;99978.63;5061761;28;20037;-73
2020/12/10 02:33:06;;;;;;;79.43;35.88;;;;;;;3.25;75.58;99980.34;5063074;28;20066;-73
2020/12/10 02:35:33;;;;;;;82.00;35.58;;;;;;;3.22;75.62;99982.91;5055613;28;20028;-73
2020/12/10 02:38:01;;;;;;;78.60;35.85;;;;;;;3.20;75.71;99988.94;5059871;28;20479;-73
2020/12/10 02:40:29;;;;;;;77.30;36.08;;;;;;;3.19;75.96;99980.22;5060096;28;20051;-73
2020/12/10 02:42:57;;;;;;;80.47;36.38;;;;;;;3.20;76.10;99971.56;5062897;28;20037;-73
2020/12/10 02:45:22;;;;;;;81.38;37.88;;;;;;;3.24;75.85;99962.03;5063184;28;20040;-73
2020/12/10 02:47:48;;;;;;;87.30;38.28;;;;;;;3.24;75.83;99962.03;5051492;28;20036;-73
2020/12/10 02:50:14;;;;;;;78.43;36.85;;;;;;;3.23;75.44;99957.69;5059602;28;20091;-73
2020/12/10 02:52:39;;;;;;;81.43;37.00;;;;;;;3.22;75.65;99963.75;5060256;28;20128;-73
2020/12/10 02:55:05;;;;;;;86.97;38.95;;;;;;;3.20;75.63;99960.25;5062935;28;20181;-73
2020/12/10 02:57:30;;;;;;;81.00;36.42;;;;;;;3.19;75.77;99963.72;5061929;28;20447;-73
2020/12/10 02:59:56;;;;;;;81.57;36.45;;;;;;;3.20;75.67;99965.47;5059285;28;20043;-74
2020/12/10 03:02:21;;;;;;;80.75;37.17;;;;;;;3.21;75.83;99962.00;5059302;28;20052;-73
2020/12/10 03:04:48;;;;;;;75.57;33.80;;;;;;;3.22;75.97;99967.25;5062680;28;20040;-72
2020/12/10 03:07:14;;;;;;;79.80;36.65;;;;;;;3.18;76.01;99957.63;5061581;28;20081;-72
2020/12/10 03:09:41;;;;;;;79.93;36.30;;;;;;;3.20;75.83;99957.66;5060348;28;20032;-73
2020/12/10 03:12:06;;;;;;;76.88;36.80;;;;;;;3.24;75.89;99951.63;5059571;28;20379;-73
2020/12/10 03:14:31;;;;;;;80.22;35.58;;;;;;;3.24;75.32;99951.63;5060359;28;20037;-72
2020/12/10 03:16:56;;;;;;;81.05;35.28;;;;;;;3.23;75.20;99955.09;5062692;28;20036;-73
2020/12/10 03:19:25;;;;;;;79.50;34.50;;;;;;;3.21;75.26;99947.22;5062220;28;20063;-73
2020/12/10 03:21:50;;;;;;;77.05;35.70;;;;;;;3.18;75.19;99946.31;5059335;28;20606;-73
2020/12/10 03:24:16;;;;;;;80.20;35.38;;;;;;;3.12;75.54;99952.31;5041259;28;20060;-72
2020/12/10 03:26:41;;;;;;;73.75;35.67;;;;;;;3.09;75.77;99949.66;5061862;28;20045;-73
2020/12/10 03:29:08;;;;;;;82.47;36.35;;;;;;;3.01;75.61;99943.44;5064135;28;20032;-72
2020/12/10 03:31:34;;;;;;;104.70;43.65;;;;;;;3.02;76.29;99950.44;5065471;28;20380;-73
2020/12/10 03:34:00;;;;;;;124.20;49.72;;;;;;;3.12;76.76;99944.50;5063121;28;20396;-72
2020/12/10 03:36:25;;;;;;;115.03;47.25;;;;;;;3.19;76.77;99945.44;5063792;28;20048;-73
2020/12/10 03:38:51;;;;;;;117.80;46.67;;;;;;;3.28;77.42;99936.03;5066396;28;20033;-72
2020/12/10 03:41:16;;;;;;;109.57;44.95;;;;;;;3.37;76.27;99934.41;5066852;28;20052;-72
2020/12/10 03:43:41;;;;;;;108.35;46.40;;;;;;;3.42;76.66;99928.38;5063746;28;20032;-73
2020/12/10 03:46:07;;;;;;;105.45;41.90;;;;;;;3.48;75.87;99925.88;5063163;28;20167;-73
2020/12/10 03:48:32;;;;;;;96.07;36.40;;;;;;;3.43;75.07;99932.78;5064205;28;20080;-72
2020/12/10 03:50:57;;;;;;;74.40;32.38;;;;;;;3.32;74.82;99934.34;5066347;28;20125;-73
2020/12/10 03:53:23;;;;;;;73.45;32.70;;;;;;;3.24;75.00;99933.34;5066071;28;20125;-73
2020/12/10 03:55:48;;;;;;;73.30;33.15;;;;;;;3.15;74.95;99931.50;5062581;28;20048;-73
2020/12/10 03:58:13;;;;;;;79.78;35.60;;;;;;;3.09;75.24;99926.19;5062657;28;20051;-73
2020/12/10 04:00:38;;;;;;;77.95;33.65;;;;;;;3.05;75.02;99929.63;5064835;28;20033;-73
2020/12/10 04:03:04;;;;;;;76.80;32.30;;;;;;;3.01;75.09;99923.50;5066046;28;20037;-73
2020/12/10 04:05:29;;;;;;;68.63;33.28;;;;;;;2.98;75.04;99928.63;5065253;28;20047;-72
2020/12/10 04:07:54;;;;;;;75.50;34.85;;;;;;;2.92;75.46;99919.88;5062568;28;20040;-73
2020/12/10 04:10:20;;;;;;;77.70;33.65;;;;;;;2.84;75.32;99932.78;5062686;28;20037;-73
2020/12/10 04:12:45;;;;;;;78.40;34.03;;;;;;;2.80;75.48;99928.34;5065452;28;20043;-73
2020/12/10 04:15:10;;;;;;;74.20;33.13;;;;;;;2.78;75.54;99930.09;5065416;28;20036;-73
2020/12/10 04:17:36;;;;;;;74.38;34.35;;;;;;;2.72;75.71;99930.84;5062183;28;20037;-73
2020/12/10 04:20:01;;;;;;;73.55;34.50;;;;;;;2.68;75.76;99939.47;5064553;28;20064;-72
2020/12/10 04:22:27;;;;;;;74.28;33.75;;;;;;;2.71;75.68;99938.66;5062760;28;20044;-73
2020/12/10 04:24:52;;;;;;;71.93;33.67;;;;;;;2.73;75.62;99931.75;5065865;28;20047;-73
2020/12/10 04:27:17;;;;;;;70.22;32.15;;;;;;;2.67;75.67;99936.84;5065671;28;20045;-73
2020/12/10 04:29:43;;;;;;;74.95;33.88;;;;;;;2.69;76.17;99935.13;5062883;28;20054;-73
2020/12/10 04:32:08;;;;;;;71.10;33.03;;;;;;;2.65;75.67;99934.22;5062020;28;20033;-73
2020/12/10 04:34:33;;;;;;;74.80;32.97;;;;;;;2.66;75.67;99935.09;5061064;28;20061;-72
2020/12/10 04:36:59;;;;;;;80.13;34.83;;;;;;;2.61;75.68;99928.06;5062202;28;20033;-73
2020/12/10 04:39:24;;;;;;;78.18;33.88;;;;;;;2.56;75.99;99940.13;5061756;28;20053;-73
2020/12/10 04:41:49;;;;;;;64.93;31.60;;;;;;;2.58;75.84;99943.66;5065620;28;20424;-73
2020/12/10 04:44:15;;;;;;;72.97;33.22;;;;;;;2.56;76.06;99934.94;5065256;28;20482;-73
2020/12/10 04:46:41;;;;;;;74.03;34.70;;;;;;;2.59;75.53;99936.72;5063110;28;20051;-73
2020/12/10 04:49:06;;;;;;;74.22;34.58;;;;;;;2.64;76.02;99937.66;5061788;28;20061;-73
2020/12/10 04:51:34;;;;;;;69.78;33.17;;;;;;;2.66;75.51;99935.09;5063150;28;20525;-70
2020/12/10 04:54:02;;;;;;;75.82;35.25;;;;;;;2.63;75.69;99936.78;5065003;28;20040;-73
2020/12/10 04:56:28;;;;;;;73.82;32.28;;;;;;;2.70;75.59;99944.69;5064611;28;20399;-72
2020/12/10 04:58:53;;;;;;;64.88;30.35;;;;;;;2.66;75.96;99935.97;5061710;28;20029;-72
2020/12/10 05:01:19;;;;;;;65.82;30.85;;;;;;;2.70;75.84;99931.66;5061627;28;20051;-72
2020/12/10 05:03:46;;;;;;;65.13;31.13;;;;;;;2.74;75.00;99941.31;5064469;28;20036;-72
2020/12/10 05:06:13;;;;;;;68.60;29.95;;;;;;;2.73;75.19;99935.22;5065141;28;20052;-72
2020/12/10 05:08:40;;;;;;;63.85;30.17;;;;;;;2.77;74.88;99939.59;5061283;28;20043;-73
2020/12/10 05:11:05;;;;;;;68.97;30.92;;;;;;;2.73;74.85;99936.97;5060184;28;20463;-72
2020/12/10 05:13:31;;;;;;;67.28;31.77;;;;;;;2.64;75.28;99933.31;5062327;28;20055;-71
2020/12/10 05:15:56;;;;;;;65.13;30.73;;;;;;;2.63;74.59;99936.78;5064770;28;20128;-72
2020/12/10 05:18:22;;;;;;;68.43;31.60;;;;;;;2.63;74.78;99944.59;5065042;28;20449;-72
2020/12/10 05:20:49;;;;;;;63.42;30.08;;;;;;;2.68;75.19;99938.59;5061260;28;20037;-73
2020/12/10 05:23:26;;;;;;;58.47;28.77;;;;;;;2.66;74.93;99940.31;5060969;28;20047;-69
2020/12/10 05:25:53;;;;;;;61.85;28.05;;;;;;;2.67;74.34;99937.72;5053583;28;20535;-70
2020/12/10 05:28:20;;;;;;;60.97;29.33;;;;;;;2.71;74.67;99938.66;5061408;28;20199;-70
2020/12/10 05:31:01;;;;;;;60.67;29.30;;;;;;;2.67;74.40;99939.44;5064114;28;20032;-70
2020/12/10 05:33:26;;;;;;;57.33;28.20;;;;;;;2.69;74.53;99929.94;5057833;28;20040;-70
2020/12/10 05:36:09;;;;;;;58.05;29.20;;;;;;;2.68;74.24;99928.19;5072477;28;20033;-70
2020/12/10 05:38:52;;;;;;;58.03;28.00;;;;;;;2.67;73.65;99929.03;5060538;28;20110;-70
2020/12/10 05:41:22;;;;;;;65.40;31.50;;;;;;;2.68;74.02;99922.97;5066447;28;20029;-70
2020/12/10 05:43:48;;;;;;;58.03;28.95;;;;;;;2.65;74.31;99926.41;5068741;28;20036;-70
2020/12/10 05:46:19;;;;;;;54.85;26.35;;;;;;;2.64;74.19;99922.91;5059874;28;20043;-70
2020/12/10 05:48:46;;;;;;;57.13;27.90;;;;;;;2.63;74.45;99926.38;5052898;28;20501;-70
2020/12/10 05:51:20;;;;;;;60.53;28.48;;;;;;;2.61;73.98;99935.00;5050647;28;20034;-70
2020/12/10 05:53:46;;;;;;;55.65;27.48;;;;;;;2.66;74.43;99928.16;5056526;28;20509;-70
2020/12/10 05:56:13;;;;;;;62.78;28.75;;;;;;;2.58;74.42;99924.56;5060065;28;20032;-70
2020/12/10 05:58:47;;;;;;;54.17;28.98;;;;;;;2.58;74.32;99932.38;5059469;28;20496;-70
2020/12/10 06:01:32;;;;;;;57.92;28.67;;;;;;;2.60;74.86;99928.94;5069196;28;20036;-71
2020/12/10 06:03:58;;;;;;;63.30;29.38;;;;;;;2.63;74.87;99933.31;5061409;28;20830;-70
2020/12/10 06:06:27;;;;;;;62.63;30.45;;;;;;;2.66;74.61;99932.50;5060459;28;20068;-70
2020/12/10 06:08:59;;;;;;;56.45;27.30;;;;;;;2.69;74.16;99930.78;5063581;28;20517;-70
2020/12/10 06:11:24;;;;;;;61.85;29.05;;;;;;;2.69;74.43;99925.59;5063553;28;20037;-71
2020/12/10 06:13:58;;;;;;;58.03;28.85;;;;;;;2.71;74.36;99925.63;5060003;28;20040;-71
2020/12/10 06:16:24;;;;;;;62.28;28.77;;;;;;;2.73;74.43;99926.53;5060267;28;20041;-70
2020/12/10 06:19:01;;;;;;;60.95;28.38;;;;;;;2.69;74.01;99933.41;5063516;28;20091;-71
2020/12/10 06:21:45;;;;;;;58.88;27.33;;;;;;;2.64;74.04;99935.06;5063160;28;20032;-71
2020/12/10 06:24:25;;;;;;;57.67;28.35;;;;;;;2.57;74.30;99930.63;5056351;28;20044;-71
2020/12/10 06:26:55;;;;;;;58.00;28.58;;;;;;;2.58;74.40;99930.63;5066529;28;20044;-70
2020/12/10 06:29:30;;;;;;;57.03;26.60;;;;;;;2.58;74.38;99927.16;5055975;28;20044;-71
2020/12/10 06:32:02;;;;;;;59.80;28.38;;;;;;;2.51;74.23;99928.75;5052878;28;20047;-70
2020/12/10 06:34:45;;;;;;;60.75;29.15;;;;;;;2.45;74.21;99931.28;5065740;28;20521;-70
2020/12/10 06:37:18;;;;;;;50.30;26.30;;;;;;;2.48;74.35;99946.09;5061957;28;20032;-71
2020/12/10 06:39:45;;;;;;;52.28;24.85;;;;;;;2.46;74.67;99953.84;5060324;28;20036;-70
2020/12/10 06:42:10;;;;;;;55.60;26.70;;;;;;;2.43;74.17;99961.63;5064666;28;20464;-71
2020/12/10 06:44:36;;;;;;;47.78;24.85;;;;;;;2.42;74.67;99952.06;5061288;28;20090;-70
2020/12/10 06:47:03;;;;;;;58.30;27.20;;;;;;;2.44;74.31;99960.78;5063464;28;20033;-69
2020/12/10 06:49:31;;;;;;;56.03;25.45;;;;;;;2.37;74.12;99961.53;5070940;28;20068;-71
2020/12/10 06:52:14;;;;;;;56.22;27.30;;;;;;;2.39;73.66;99962.44;5063106;28;20044;-70
2020/12/10 06:55:05;;;;;;;58.72;26.85;;;;;;;2.37;74.11;99956.31;5060769;28;20032;-71
2020/12/10 06:58:15;;;;;;;50.55;25.48;;;;;;;2.34;74.07;99956.28;5060509;28;20174;-70
2020/12/10 07:00:47;;;;;;;48.75;22.83;;;;;;;2.32;73.45;99950.16;4998562;28;20120;-70
2020/12/10 07:03:18;;;;;;;52.30;24.15;;;;;;;2.29;73.97;99950.09;5050103;28;20048;-70
2020/12/10 07:05:43;;;;;;;54.97;24.98;;;;;;;2.29;74.09;99955.31;5062209;28;20131;-70
2020/12/10 07:08:10;;;;;;;50.13;24.80;;;;;;;2.28;74.17;99958.75;5062663;28;20119;-70
2020/12/10 07:10:40;;;;;;;44.20;22.90;;;;;;;2.25;74.05;99946.53;5061033;28;20029;-70
2020/12/10 07:13:06;;;;;;;44.80;23.90;;;;;;;2.28;74.02;99949.22;5061081;28;20395;-70
2020/12/10 07:15:32;;;;;;;46.55;24.60;;;;;;;2.30;73.72;99949.25;5068007;28;20044;-70
2020/12/10 07:17:58;;;;;;;46.80;23.17;;;;;;;2.30;73.65;99957.03;5060570;28;20483;-70
2020/12/10 07:20:24;;;;;;;46.75;24.02;;;;;;;2.30;73.77;99963.13;5062405;28;20107;-70
2020/12/10 07:22:49;;;;;;;44.50;22.98;;;;;;;2.30;73.25;99957.91;5066553;28;20036;-70
2020/12/10 07:25:15;;;;;;;45.88;24.13;;;;;;;2.33;73.76;99957.09;5066718;28;20055;-70
2020/12/10 07:27:41;;;;;;;45.38;22.05;;;;;;;2.31;73.43;99964.03;5066031;28;20629;-69
2020/12/10 07:30:11;;;;;;;45.13;22.15;;;;;;;2.30;73.40;99957.03;5067558;28;20033;-70
2020/12/10 07:32:38;;;;;;;48.20;23.25;;;;;;;2.34;73.72;99964.09;5062473;28;20040;-70
2020/12/10 07:35:04;;;;;;;45.90;23.33;;;;;;;2.34;73.67;99958.88;5062624;28;20521;-70
2020/12/10 07:37:31;;;;;;;47.53;25.05;;;;;;;2.36;73.45;99951.97;5061769;28;20040;-70
2020/12/10 07:39:57;;;;;;;50.53;25.13;;;;;;;2.29;73.62;99952.69;5058944;28;20033;-70
2020/12/10 07:42:23;;;;;;;52.17;25.20;;;;;;;2.29;73.31;99950.97;5065841;28;20036;-70
2020/12/10 07:44:50;;;;;;;44.70;24.30;;;;;;;2.29;73.54;99952.69;5046102;28;20037;-70
2020/12/10 07:47:15;;;;;;;51.65;24.67;;;;;;;2.31;73.93;99964.91;5053332;28;20403;-70
2020/12/10 07:49:40;;;;;;;48.47;23.25;;;;;;;2.34;73.47;99964.09;5060019;28;20637;-70
2020/12/10 07:52:12;;;;;;;50.55;26.55;;;;;;;2.34;73.25;99964.94;5058933;28;20491;-70
2020/12/10 07:54:43;;;;;;;45.83;23.13;;;;;;;2.32;73.43;99971.84;5060863;28;20100;-69
2020/12/10 07:57:21;;;;;;;49.38;25.00;;;;;;;2.32;73.23;99964.03;5054979;28;20039;-70
2020/12/10 07:59:47;;;;;;;49.75;26.13;;;;;;;2.30;73.17;99972.66;5070203;28;20046;-69
2020/12/10 08:02:17;;;;;;;49.72;25.67;;;;;;;2.31;73.21;99970.09;5063579;28;20462;-70
2020/12/10 08:04:42;;;;;;;53.72;25.58;;;;;;;2.28;72.90;99970.06;5060180;28;20033;-70
2020/12/10 08:07:12;;;;;;;51.38;25.42;;;;;;;2.27;73.43;99983.03;5062366;28;20039;-70
2020/12/10 08:09:37;;;;;;;47.63;25.63;;;;;;;2.28;73.10;99980.47;5060426;28;20032;-70
2020/12/10 08:12:02;;;;;;;54.40;26.95;;;;;;;2.29;72.97;99969.19;5058881;28;20450;-70
2020/12/10 08:14:29;;;;;;;54.33;26.70;;;;;;;2.28;73.29;99963.94;5059862;28;20041;-70
2020/12/10 08:16:55;;;;;;;52.10;26.23;;;;;;;2.27;72.71;99967.41;5065859;28;20429;-70
2020/12/10 08:19:26;;;;;;;53.08;25.92;;;;;;;2.26;72.90;99955.25;5065832;28;20036;-70
2020/12/10 08:21:52;;;;;;;52.75;24.88;;;;;;;2.21;72.64;99959.50;5054773;28;20036;-70
2020/12/10 08:24:38;;;;;;;54.22;24.98;;;;;;;2.15;72.69;99952.47;5062196;28;20033;-70
2020/12/10 08:27:05;;;;;;;50.10;24.67;;;;;;;2.13;72.53;99949.81;5056188;28;20033;-70
2020/12/10 08:29:30;;;;;;;51.33;26.55;;;;;;;2.13;72.53;99960.22;5063137;28;20024;-70
2020/12/10 08:32:07;;;;;;;53.10;26.05;;;;;;;2.14;72.65;99951.56;5065670;28;20101;-70
2020/12/10 08:34:32;;;;;;;69.68;34.47;;;;;;;2.16;73.65;99949.88;5064407;28;20098;-70
2020/12/10 08:37:08;;;;;;;73.75;36.03;;;;;;;2.29;74.34;99944.88;5062248;28;20064;-70
2020/12/10 08:39:35;;;;;;;66.22;31.88;;;;;;;2.38;73.52;99942.44;5063430;28;20055;-70
2020/12/10 08:42:02;;;;;;;56.78;28.00;;;;;;;2.41;72.93;99948.59;5058561;28;20040;-69
2020/12/10 08:44:43;;;;;;;58.28;27.42;;;;;;;2.42;72.78;99946.84;5059682;28;20116;-70
2020/12/10 08:47:09;;;;;;;48.28;24.83;;;;;;;2.42;72.37;99957.28;5065441;28;20036;-69
2020/12/10 08:49:34;;;;;;;46.38;23.90;;;;;;;2.38;72.60;99955.44;5063847;28;20069;-70
2020/12/10 08:52:00;;;;;;;45.50;22.98;;;;;;;2.40;72.15;99948.56;5061983;28;20072;-70
2020/12/10 08:54:26;;;;;;;46.78;23.85;;;;;;;2.41;72.19;99946.00;5061900;28;20040;-70
2020/12/10 08:57:04;;;;;;;49.35;23.38;;;;;;;2.41;71.55;99952.91;5048573;28;22048;-70
2020/12/10 08:59:30;;;;;;;50.38;24.58;;;;;;;2.34;72.12;99944.13;5052659;28;20045;-70
2020/12/10 09:01:55;;;;;;;50.72;24.25;;;;;;;2.41;71.87;99952.91;5070192;28;20037;-70
2020/12/10 09:04:20;;;;;;;47.72;24.10;;;;;;;2.45;72.31;99957.31;5063796;28;20037;-70
2020/12/10 09:06:47;;;;;;;47.67;25.13;;;;;;;2.46;71.95;99956.47;5058794;28;20025;-69
2020/12/10 09:09:12;;;;;;;42.80;23.67;;;;;;;2.51;71.77;99956.53;5066195;28;20618;-70
2020/12/10 09:11:38;;;;;;;45.90;23.30;;;;;;;2.54;71.37;99952.28;5066667;28;20060;-70
2020/12/10 09:14:03;;;;;;;47.53;24.45;;;;;;;2.49;71.30;99953.03;5070742;28;20036;-70
2020/12/10 09:16:30;;;;;;;44.22;22.08;;;;;;;2.48;71.31;99946.09;5061999;28;20032;-70
2020/12/10 09:18:56;;;;;;;48.30;22.55;;;;;;;2.49;71.41;99940.00;5064265;28;20037;-70
2020/12/10 09:21:21;;;;;;;49.10;23.92;;;;;;;2.51;71.69;99930.50;5069271;28;20032;-70
2020/12/10 09:23:46;;;;;;;52.35;24.40;;;;;;;2.54;71.31;99938.34;5069612;28;20115;-70
2020/12/10 09:26:13;;;;;;;46.67;22.88;;;;;;;2.52;71.32;99938.34;5061240;28;20032;-70
2020/12/10 09:28:39;;;;;;;54.20;26.67;;;;;;;2.55;71.29;99935.78;5063101;28;20029;-69
2020/12/10 09:31:04;;;;;;;52.40;24.88;;;;;;;2.59;71.43;99927.19;5064524;28;20101;-70
2020/12/10 09:33:30;;;;;;;47.20;24.23;;;;;;;2.60;71.11;99926.31;5063554;28;20041;-70
2020/12/10 09:35:55;;;;;;;44.58;22.98;;;;;;;2.61;70.89;99919.38;5061133;28;20051;-70
2020/12/10 09:38:20;;;;;;;55.75;24.70;;;;;;;2.67;70.68;99916.88;5061029;28;20024;-70
2020/12/10 09:40:46;;;;;;;50.08;25.35;;;;;;;2.65;70.64;99918.59;5063713;28;20043;-69
2020/12/10 09:43:11;;;;;;;50.22;23.98;;;;;;;2.66;71.33;99907.31;5064184;28;20044;-71
2020/12/10 09:45:36;;;;;;;51.13;25.58;;;;;;;2.68;70.95;99907.34;5062687;28;20081;-70
2020/12/10 09:48:02;;;;;;;46.28;24.45;;;;;;;2.74;70.86;99910.03;5060954;28;20562;-70
2020/12/10 09:50:34;;;;;;;49.35;24.95;;;;;;;2.79;70.79;99905.78;5061277;28;20041;-70
2020/12/10 09:55:49;;;;;;;47.25;25.13;;;;;;;2.76;70.96;99905.72;5063606;28;20037;-69
2020/12/10 09:58:15;;;;;;;40.83;22.35;;;;;;;2.80;70.54;99899.69;5060820;28;20114;-70
2020/12/10 10:00:40;;;;;;;51.20;23.85;;;;;;;2.84;70.33;99898.91;5062742;28;20115;-70
2020/12/10 10:03:06;;;;;;;45.80;22.60;;;;;;;2.91;69.81;99902.47;5063790;28;20029;-69
2020/12/10 10:05:33;;;;;;;50.58;23.52;;;;;;;2.96;70.19;99892.97;5062902;28;20036;-69
2020/12/10 10:07:59;;;;;;;48.17;23.85;;;;;;;3.01;70.03;99892.22;5063365;28;20033;-70
2020/12/10 10:10:25;;;;;;;52.05;26.23;;;;;;;3.05;70.08;99891.38;5065096;28;20439;-70
2020/12/10 10:12:50;;;;;;;48.70;24.27;;;;;;;3.12;70.15;99892.34;5071753;28;20082;-71
2020/12/10 10:15:17;;;;;;;52.38;25.00;;;;;;;3.03;69.71;99895.69;5056940;28;20020;-71
2020/12/10 10:17:42;;;;;;;49.90;25.65;;;;;;;3.00;69.98;99890.44;5071871;28;20039;-70
2020/12/10 10:20:07;;;;;;;50.63;24.52;;;;;;;3.04;69.82;99892.25;5070440;28;20449;-70
2020/12/10 10:22:33;;;;;;;45.92;23.75;;;;;;;3.08;69.69;99886.19;5066187;28;20044;-70
2020/12/10 10:24:58;;;;;;;48.97;23.83;;;;;;;3.16;69.37;99891.53;5066432;28;20422;-70
2020/12/10 10:27:24;;;;;;;48.92;24.83;;;;;;;3.20;69.46;99890.72;5071684;28;20431;-70
2020/12/10 10:29:49;;;;;;;49.25;24.38;;;;;;;3.26;69.52;99885.56;5063334;28;20032;-70
2020/12/10 10:32:14;;;;;;;52.88;27.02;;;;;;;3.35;69.23;99881.34;5063248;28;20131;-71
2020/12/10 10:34:40;;;;;;;57.20;28.20;;;;;;;3.40;69.18;99880.53;5061295;28;20111;-70
2020/12/10 10:37:05;;;;;;;56.08;29.23;;;;;;;3.40;68.71;99890.97;5059496;28;20055;-70
2020/12/10 10:39:30;;;;;;;58.92;29.10;;;;;;;3.41;69.28;99884.03;5060526;28;20036;-70
2020/12/10 10:41:55;;;;;;;68.97;33.75;;;;;;;3.45;69.50;99877.97;5063350;28;20039;-70
2020/12/10 10:44:21;;;;;;;61.20;32.67;;;;;;;3.51;69.66;99883.25;5058783;28;20029;-70
2020/12/10 10:46:46;;;;;;;52.72;28.23;;;;;;;3.51;68.96;99878.03;5061003;28;20040;-70
2020/12/10 10:49:15;;;;;;;55.97;28.15;;;;;;;3.51;68.93;99871.13;5059603;28;20122;-71
2020/12/10 10:51:41;;;;;;;55.20;27.88;;;;;;;3.47;68.95;99873.66;5061968;28;20032;-69
2020/12/10 10:54:06;;;;;;;58.65;28.35;;;;;;;3.48;69.03;99872.78;5055153;28;20025;-70
2020/12/10 10:56:31;;;;;;;62.38;29.42;;;;;;;3.51;69.00;99870.22;5059010;28;20106;-70
2020/12/10 10:58:57;;;;;;;55.35;27.80;;;;;;;3.54;68.92;99861.56;5066126;28;20399;-70
2020/12/10 11:01:29;;;;;;;56.17;27.70;;;;;;;3.51;68.55;99868.50;5068150;28;20040;-70
2020/12/10 11:03:54;;;;;;;55.85;27.88;;;;;;;3.49;69.35;99866.75;5060184;28;20040;-70
2020/12/10 11:06:20;;;;;;;62.75;30.73;;;;;;;3.41;68.91;99869.25;5067497;28;20043;-70
2020/12/10 11:08:45;;;;;;;60.80;31.05;;;;;;;3.38;69.19;99868.31;5064397;28;20044;-70
2020/12/10 11:11:11;;;;;;;58.63;30.08;;;;;;;3.39;69.38;99868.34;5056606;28;20031;-70
2020/12/10 11:13:36;;;;;;;65.50;33.60;;;;;;;3.42;69.48;99876.22;5060770;28;20434;-70
2020/12/10 11:16:02;;;;;;;73.18;35.05;;;;;;;3.39;69.51;99863.13;5056874;28;20050;-70
2020/12/10 11:18:27;;;;;;;84.85;39.15;;;;;;;3.43;70.43;99859.72;5059230;28;20466;-70
2020/12/10 11:20:52;;;;;;;65.18;32.20;;;;;;;3.40;69.84;99862.28;5059054;28;20099;-70
2020/12/10 11:23:19;;;;;;;54.45;28.55;;;;;;;3.43;69.68;99853.59;5041394;28;20029;-69
2020/12/10 11:25:45;;;;;;;61.60;30.80;;;;;;;3.44;69.56;99850.16;5057028;28;20032;-70
2020/12/10 11:28:10;;;;;;;60.17;29.88;;;;;;;3.43;69.23;99849.28;5050534;28;20055;-69